sensor_id;sensor_type;location;lat;lon;timestamp;temperature;humidity
25732;DHT22;13585;50.864;4.406;2023-03-29T00:00:48;16.20;69.80
25732;DHT22;13585;50.864;4.406;2023-03-29T00:03:14;16.20;69.70
25732;DHT22;13585;50.864;4.406;2023-03-29T00:05:40;16.20;69.70
25732;DHT22;13585;50.864;4.406;2023-03-29T00:08:06;16.20;69.70
25732;DHT22;13585;50.864;4.406;2023-03-29T00:10:32;16.20;69.70
25732;DHT22;13585;50.864;4.406;2023-03-29T00:12:58;16.20;69.60
25732;DHT22;13585;50.864;4.406;2023-03-29T00:15:27;16.20;69.70
25732;DHT22;13585;50.864;4.406;2023-03-29T00:17:52;16.20;69.60
25732;DHT22;13585;50.864;4.406;2023-03-29T00:20:18;16.20;69.60
25732;DHT22;13585;50.864;4.406;2023-03-29T00:22:44;16.20;69.60
25732;DHT22;13585;50.864;4.406;2023-03-29T00:25:11;16.20;69.50
25732;DHT22;13585;50.864;4.406;2023-03-29T00:27:37;16.10;69.40
25732;DHT22;13585;50.864;4.406;2023-03-29T00:30:04;16.20;69.50
25732;DHT22;13585;50.864;4.406;2023-03-29T00:32:31;16.10;69.40
25732;DHT22;13585;50.864;4.406;2023-03-29T00:34:59;16.20;69.50
25732;DHT22;13585;50.864;4.406;2023-03-29T00:37:26;16.10;69.40
25732;DHT22;13585;50.864;4.406;2023-03-29T00:39:55;16.20;69.40
25732;DHT22;13585;50.864;4.406;2023-03-29T00:42:21;16.20;69.40
25732;DHT22;13585;50.864;4.406;2023-03-29T00:47:51;16.20;69.40
25732;DHT22;13585;50.864;4.406;2023-03-29T00:50:29;16.20;69.30
25732;DHT22;13585;50.864;4.406;2023-03-29T00:55:35;16.20;69.30
25732;DHT22;13585;50.864;4.406;2023-03-29T00:58:04;16.20;69.30
25732;DHT22;13585;50.864;4.406;2023-03-29T01:00:36;16.10;69.20
25732;DHT22;13585;50.864;4.406;2023-03-29T01:03:07;16.20;69.30
25732;DHT22;13585;50.864;4.406;2023-03-29T01:05:40;16.20;69.20
25732;DHT22;13585;50.864;4.406;2023-03-29T01:08:31;16.20;69.20
25732;DHT22;13585;50.864;4.406;2023-03-29T01:14:01;16.10;69.20
25732;DHT22;13585;50.864;4.406;2023-03-29T01:16:29;16.10;69.10
25732;DHT22;13585;50.864;4.406;2023-03-29T01:18:55;16.10;69.10
25732;DHT22;13585;50.864;4.406;2023-03-29T01:21:34;16.20;69.10
25732;DHT22;13585;50.864;4.406;2023-03-29T01:29:47;16.20;69.00
25732;DHT22;13585;50.864;4.406;2023-03-29T01:32:30;16.10;69.10
25732;DHT22;13585;50.864;4.406;2023-03-29T01:37:34;16.10;69.00
25732;DHT22;13585;50.864;4.406;2023-03-29T01:40:02;16.10;69.00
25732;DHT22;13585;50.864;4.406;2023-03-29T01:45:35;16.10;69.00
25732;DHT22;13585;50.864;4.406;2023-03-29T01:48:17;16.10;68.90
25732;DHT22;13585;50.864;4.406;2023-03-29T01:50:52;16.10;68.90
25732;DHT22;13585;50.864;4.406;2023-03-29T01:53:28;16.10;68.90
25732;DHT22;13585;50.864;4.406;2023-03-29T01:56:01;16.10;68.90
25732;DHT22;13585;50.864;4.406;2023-03-29T01:58:32;16.10;68.90
25732;DHT22;13585;50.864;4.406;2023-03-29T02:00:59;16.10;68.80
25732;DHT22;13585;50.864;4.406;2023-03-29T02:03:27;16.10;68.80
25732;DHT22;13585;50.864;4.406;2023-03-29T02:05:56;16.10;68.80
25732;DHT22;13585;50.864;4.406;2023-03-29T02:08:22;16.10;68.80
25732;DHT22;13585;50.864;4.406;2023-03-29T02:10:50;16.10;68.80
25732;DHT22;13585;50.864;4.406;2023-03-29T02:13:17;16.10;68.80
25732;DHT22;13585;50.864;4.406;2023-03-29T02:15:44;16.10;68.70
25732;DHT22;13585;50.864;4.406;2023-03-29T02:18:10;16.10;68.70
25732;DHT22;13585;50.864;4.406;2023-03-29T02:20:39;16.10;68.70
25732;DHT22;13585;50.864;4.406;2023-03-29T02:23:20;16.10;68.70
25732;DHT22;13585;50.864;4.406;2023-03-29T02:25:49;16.10;68.70
25732;DHT22;13585;50.864;4.406;2023-03-29T02:28:18;16.10;68.60
25732;DHT22;13585;50.864;4.406;2023-03-29T02:33:23;16.10;68.60
25732;DHT22;13585;50.864;4.406;2023-03-29T02:35:57;16.10;68.70
25732;DHT22;13585;50.864;4.406;2023-03-29T02:38:24;16.10;68.50
25732;DHT22;13585;50.864;4.406;2023-03-29T02:40:51;16.10;68.50
25732;DHT22;13585;50.864;4.406;2023-03-29T02:43:18;16.10;68.50
25732;DHT22;13585;50.864;4.406;2023-03-29T02:45:46;16.10;68.50
25732;DHT22;13585;50.864;4.406;2023-03-29T02:48:16;16.10;68.50
25732;DHT22;13585;50.864;4.406;2023-03-29T02:50:44;16.10;68.40
25732;DHT22;13585;50.864;4.406;2023-03-29T02:53:17;16.10;68.40
25732;DHT22;13585;50.864;4.406;2023-03-29T02:55:45;16.10;69.20
25732;DHT22;13585;50.864;4.406;2023-03-29T02:58:12;16.10;68.40
25732;DHT22;13585;50.864;4.406;2023-03-29T03:00:43;16.10;68.40
25732;DHT22;13585;50.864;4.406;2023-03-29T03:03:10;16.10;68.40
25732;DHT22;13585;50.864;4.406;2023-03-29T03:05:36;16.10;68.40
25732;DHT22;13585;50.864;4.406;2023-03-29T03:08:03;16.10;68.40
25732;DHT22;13585;50.864;4.406;2023-03-29T03:10:29;16.10;68.40
25732;DHT22;13585;50.864;4.406;2023-03-29T03:12:55;16.00;68.30
25732;DHT22;13585;50.864;4.406;2023-03-29T03:15:20;16.10;68.30
25732;DHT22;13585;50.864;4.406;2023-03-29T03:17:46;16.10;68.30
25732;DHT22;13585;50.864;4.406;2023-03-29T03:20:13;16.10;68.30
25732;DHT22;13585;50.864;4.406;2023-03-29T03:22:43;16.10;68.20
25732;DHT22;13585;50.864;4.406;2023-03-29T03:25:16;16.10;68.30
25732;DHT22;13585;50.864;4.406;2023-03-29T03:27:44;16.10;68.30
25732;DHT22;13585;50.864;4.406;2023-03-29T03:30:10;16.10;68.20
25732;DHT22;13585;50.864;4.406;2023-03-29T03:32:36;16.10;68.20
25732;DHT22;13585;50.864;4.406;2023-03-29T03:35:02;16.10;68.20
25732;DHT22;13585;50.864;4.406;2023-03-29T03:37:30;16.10;68.20
25732;DHT22;13585;50.864;4.406;2023-03-29T03:39:56;16.10;68.90
25732;DHT22;13585;50.864;4.406;2023-03-29T03:42:22;16.00;68.10
25732;DHT22;13585;50.864;4.406;2023-03-29T03:44:48;16.00;68.10
25732;DHT22;13585;50.864;4.406;2023-03-29T03:47:14;16.10;68.10
25732;DHT22;13585;50.864;4.406;2023-03-29T03:49:40;16.10;68.20
25732;DHT22;13585;50.864;4.406;2023-03-29T03:52:07;16.10;68.10
25732;DHT22;13585;50.864;4.406;2023-03-29T03:54:33;16.00;68.10
25732;DHT22;13585;50.864;4.406;2023-03-29T03:56:59;16.10;68.10
25732;DHT22;13585;50.864;4.406;2023-03-29T03:59:24;16.10;68.10
25732;DHT22;13585;50.864;4.406;2023-03-29T04:01:50;16.10;68.90
25732;DHT22;13585;50.864;4.406;2023-03-29T04:04:17;16.10;68.10
25732;DHT22;13585;50.864;4.406;2023-03-29T04:06:44;16.10;68.10
25732;DHT22;13585;50.864;4.406;2023-03-29T04:09:10;16.10;68.00
25732;DHT22;13585;50.864;4.406;2023-03-29T04:11:36;16.10;68.00
25732;DHT22;13585;50.864;4.406;2023-03-29T04:14:01;16.00;68.00
25732;DHT22;13585;50.864;4.406;2023-03-29T04:16:27;16.00;67.90
25732;DHT22;13585;50.864;4.406;2023-03-29T04:18:53;16.10;68.00
25732;DHT22;13585;50.864;4.406;2023-03-29T04:21:19;16.10;68.00
25732;DHT22;13585;50.864;4.406;2023-03-29T04:23:45;16.10;68.00
25732;DHT22;13585;50.864;4.406;2023-03-29T04:26:12;16.00;67.90
25732;DHT22;13585;50.864;4.406;2023-03-29T04:28:40;16.10;67.90
25732;DHT22;13585;50.864;4.406;2023-03-29T04:31:11;16.00;67.80
25732;DHT22;13585;50.864;4.406;2023-03-29T04:33:37;16.10;67.90
25732;DHT22;13585;50.864;4.406;2023-03-29T04:36:04;16.10;67.90
25732;DHT22;13585;50.864;4.406;2023-03-29T04:38:30;16.10;67.80
25732;DHT22;13585;50.864;4.406;2023-03-29T04:40:56;16.10;67.90
25732;DHT22;13585;50.864;4.406;2023-03-29T04:43:22;16.10;67.80
25732;DHT22;13585;50.864;4.406;2023-03-29T04:45:48;16.10;68.60
25732;DHT22;13585;50.864;4.406;2023-03-29T04:48:13;16.00;67.80
25732;DHT22;13585;50.864;4.406;2023-03-29T04:50:39;16.00;67.70
25732;DHT22;13585;50.864;4.406;2023-03-29T04:53:06;16.00;67.80
25732;DHT22;13585;50.864;4.406;2023-03-29T04:55:32;16.00;67.80
25732;DHT22;13585;50.864;4.406;2023-03-29T04:57:58;16.00;67.70
25732;DHT22;13585;50.864;4.406;2023-03-29T05:00:23;16.00;67.80
25732;DHT22;13585;50.864;4.406;2023-03-29T05:02:52;16.00;67.70
25732;DHT22;13585;50.864;4.406;2023-03-29T05:05:27;16.00;67.70
25732;DHT22;13585;50.864;4.406;2023-03-29T05:07:53;16.00;67.60
25732;DHT22;13585;50.864;4.406;2023-03-29T05:10:19;16.00;67.60
25732;DHT22;13585;50.864;4.406;2023-03-29T05:12:44;16.00;67.70
25732;DHT22;13585;50.864;4.406;2023-03-29T05:15:11;16.00;67.60
25732;DHT22;13585;50.864;4.406;2023-03-29T05:17:37;16.00;67.60
25732;DHT22;13585;50.864;4.406;2023-03-29T05:20:04;16.00;67.70
25732;DHT22;13585;50.864;4.406;2023-03-29T05:22:36;16.00;67.70
25732;DHT22;13585;50.864;4.406;2023-03-29T05:25:03;16.00;67.70
25732;DHT22;13585;50.864;4.406;2023-03-29T05:27:29;16.00;67.80
25732;DHT22;13585;50.864;4.406;2023-03-29T05:29:55;16.00;67.80
25732;DHT22;13585;50.864;4.406;2023-03-29T05:32:20;16.00;67.90
25732;DHT22;13585;50.864;4.406;2023-03-29T05:34:46;16.00;68.70
25732;DHT22;13585;50.864;4.406;2023-03-29T05:37:12;16.00;68.00
25732;DHT22;13585;50.864;4.406;2023-03-29T05:39:37;16.00;68.00
25732;DHT22;13585;50.864;4.406;2023-03-29T05:42:03;16.10;68.10
25732;DHT22;13585;50.864;4.406;2023-03-29T05:44:30;16.00;68.10
25732;DHT22;13585;50.864;4.406;2023-03-29T05:46:56;16.00;68.10
25732;DHT22;13585;50.864;4.406;2023-03-29T05:49:23;16.00;68.20
25732;DHT22;13585;50.864;4.406;2023-03-29T05:51:48;16.00;68.20
25732;DHT22;13585;50.864;4.406;2023-03-29T05:54:16;16.00;68.30
25732;DHT22;13585;50.864;4.406;2023-03-29T05:56:41;16.10;68.40
25732;DHT22;13585;50.864;4.406;2023-03-29T05:59:07;16.10;68.40
25732;DHT22;13585;50.864;4.406;2023-03-29T06:01:33;16.10;68.40
25732;DHT22;13585;50.864;4.406;2023-03-29T06:03:59;16.00;68.40
25732;DHT22;13585;50.864;4.406;2023-03-29T06:06:25;16.10;68.50
25732;DHT22;13585;50.864;4.406;2023-03-29T06:08:51;16.10;68.50
25732;DHT22;13585;50.864;4.406;2023-03-29T06:11:16;16.00;68.50
25732;DHT22;13585;50.864;4.406;2023-03-29T06:13:42;16.10;68.60
25732;DHT22;13585;50.864;4.406;2023-03-29T06:16:09;16.10;68.60
25732;DHT22;13585;50.864;4.406;2023-03-29T06:18:35;16.10;68.60
25732;DHT22;13585;50.864;4.406;2023-03-29T06:21:04;16.10;68.60
25732;DHT22;13585;50.864;4.406;2023-03-29T06:23:31;16.10;68.60
25732;DHT22;13585;50.864;4.406;2023-03-29T06:25:56;16.10;68.70
25732;DHT22;13585;50.864;4.406;2023-03-29T06:28:24;16.10;68.70
25732;DHT22;13585;50.864;4.406;2023-03-29T06:30:50;16.10;68.70
25732;DHT22;13585;50.864;4.406;2023-03-29T06:33:17;16.10;68.70
25732;DHT22;13585;50.864;4.406;2023-03-29T06:35:48;16.10;68.70
25732;DHT22;13585;50.864;4.406;2023-03-29T06:38:14;16.10;68.70
25732;DHT22;13585;50.864;4.406;2023-03-29T06:40:40;16.10;68.70
25732;DHT22;13585;50.864;4.406;2023-03-29T06:43:07;16.10;68.70
25732;DHT22;13585;50.864;4.406;2023-03-29T06:45:35;16.10;68.70
25732;DHT22;13585;50.864;4.406;2023-03-29T06:48:02;16.10;68.70
25732;DHT22;13585;50.864;4.406;2023-03-29T06:50:28;16.10;68.70
25732;DHT22;13585;50.864;4.406;2023-03-29T06:52:53;16.10;68.70
25732;DHT22;13585;50.864;4.406;2023-03-29T06:55:19;16.10;68.70
25732;DHT22;13585;50.864;4.406;2023-03-29T06:57:47;16.10;68.70
25732;DHT22;13585;50.864;4.406;2023-03-29T07:00:14;16.10;68.70
25732;DHT22;13585;50.864;4.406;2023-03-29T07:02:45;16.10;68.70
25732;DHT22;13585;50.864;4.406;2023-03-29T07:05:12;16.10;68.70
25732;DHT22;13585;50.864;4.406;2023-03-29T07:07:40;16.10;68.70
25732;DHT22;13585;50.864;4.406;2023-03-29T07:10:20;16.10;68.70
25732;DHT22;13585;50.864;4.406;2023-03-29T07:12:49;16.10;68.60
25732;DHT22;13585;50.864;4.406;2023-03-29T07:15:16;16.10;68.60
25732;DHT22;13585;50.864;4.406;2023-03-29T07:17:42;16.10;68.60
25732;DHT22;13585;50.864;4.406;2023-03-29T07:20:08;16.10;68.60
25732;DHT22;13585;50.864;4.406;2023-03-29T07:22:41;16.10;68.60
25732;DHT22;13585;50.864;4.406;2023-03-29T07:25:08;16.10;68.70
25732;DHT22;13585;50.864;4.406;2023-03-29T07:27:35;16.10;68.60
25732;DHT22;13585;50.864;4.406;2023-03-29T07:30:02;16.10;68.60
25732;DHT22;13585;50.864;4.406;2023-03-29T07:32:29;16.10;68.60
25732;DHT22;13585;50.864;4.406;2023-03-29T07:34:55;16.10;68.60
25732;DHT22;13585;50.864;4.406;2023-03-29T07:37:21;16.10;68.60
25732;DHT22;13585;50.864;4.406;2023-03-29T07:39:49;16.10;68.50
25732;DHT22;13585;50.864;4.406;2023-03-29T07:42:15;16.10;68.50
25732;DHT22;13585;50.864;4.406;2023-03-29T07:44:41;16.10;68.50
25732;DHT22;13585;50.864;4.406;2023-03-29T07:47:06;16.10;68.50
25732;DHT22;13585;50.864;4.406;2023-03-29T07:49:32;16.10;68.50
25732;DHT22;13585;50.864;4.406;2023-03-29T07:51:57;16.10;68.50
25732;DHT22;13585;50.864;4.406;2023-03-29T07:54:23;16.10;68.50
25732;DHT22;13585;50.864;4.406;2023-03-29T07:56:49;16.10;68.50
25732;DHT22;13585;50.864;4.406;2023-03-29T07:59:15;16.10;68.40
25732;DHT22;13585;50.864;4.406;2023-03-29T08:01:41;16.10;68.50
25732;DHT22;13585;50.864;4.406;2023-03-29T08:04:07;16.10;68.50
25732;DHT22;13585;50.864;4.406;2023-03-29T08:06:32;16.10;68.50
25732;DHT22;13585;50.864;4.406;2023-03-29T08:08:58;16.10;68.40
25732;DHT22;13585;50.864;4.406;2023-03-29T08:11:24;16.10;68.40
25732;DHT22;13585;50.864;4.406;2023-03-29T08:13:50;16.10;68.40
25732;DHT22;13585;50.864;4.406;2023-03-29T08:16:16;16.10;68.40
25732;DHT22;13585;50.864;4.406;2023-03-29T08:18:42;16.10;68.40
25732;DHT22;13585;50.864;4.406;2023-03-29T08:21:08;16.10;68.40
25732;DHT22;13585;50.864;4.406;2023-03-29T08:23:34;16.10;68.40
25732;DHT22;13585;50.864;4.406;2023-03-29T08:25:59;16.10;68.40
25732;DHT22;13585;50.864;4.406;2023-03-29T08:28:25;16.10;68.30
25732;DHT22;13585;50.864;4.406;2023-03-29T08:30:52;16.10;68.30
25732;DHT22;13585;50.864;4.406;2023-03-29T08:33:17;16.10;68.30
25732;DHT22;13585;50.864;4.406;2023-03-29T08:35:43;16.10;68.30
25732;DHT22;13585;50.864;4.406;2023-03-29T08:38:09;16.10;68.30
25732;DHT22;13585;50.864;4.406;2023-03-29T08:40:35;16.10;68.30
25732;DHT22;13585;50.864;4.406;2023-03-29T08:48:53;16.10;68.30
25732;DHT22;13585;50.864;4.406;2023-03-29T08:57:48;16.20;68.20
25732;DHT22;13585;50.864;4.406;2023-03-29T09:03:20;16.10;68.30
25732;DHT22;13585;50.864;4.406;2023-03-29T09:05:50;16.10;68.30
25732;DHT22;13585;50.864;4.406;2023-03-29T09:08:18;16.10;68.30
25732;DHT22;13585;50.864;4.406;2023-03-29T09:22:43;16.10;68.40
25732;DHT22;13585;50.864;4.406;2023-03-29T09:28:10;16.10;68.20
25732;DHT22;13585;50.864;4.406;2023-03-29T09:30:42;16.10;68.30
25732;DHT22;13585;50.864;4.406;2023-03-29T09:33:25;16.10;68.30
25732;DHT22;13585;50.864;4.406;2023-03-29T09:36:16;16.10;68.40
25732;DHT22;13585;50.864;4.406;2023-03-29T09:38:46;16.10;68.40
25732;DHT22;13585;50.864;4.406;2023-03-29T09:41:30;16.10;68.30
25732;DHT22;13585;50.864;4.406;2023-03-29T09:44:01;16.10;68.40
25732;DHT22;13585;50.864;4.406;2023-03-29T09:46:37;16.10;68.30
25732;DHT22;13585;50.864;4.406;2023-03-29T09:49:08;16.10;68.40
25732;DHT22;13585;50.864;4.406;2023-03-29T09:51:36;16.10;68.40
25732;DHT22;13585;50.864;4.406;2023-03-29T09:54:03;16.10;68.40
25732;DHT22;13585;50.864;4.406;2023-03-29T09:56:28;16.10;68.40
25732;DHT22;13585;50.864;4.406;2023-03-29T09:58:55;16.10;68.40
25732;DHT22;13585;50.864;4.406;2023-03-29T10:01:21;16.20;68.50
25732;DHT22;13585;50.864;4.406;2023-03-29T10:03:51;16.10;68.40
25732;DHT22;13585;50.864;4.406;2023-03-29T10:06:19;16.10;68.40
25732;DHT22;13585;50.864;4.406;2023-03-29T10:08:53;16.10;68.50
25732;DHT22;13585;50.864;4.406;2023-03-29T10:11:30;16.10;68.50
25732;DHT22;13585;50.864;4.406;2023-03-29T10:14:01;16.20;68.60
25732;DHT22;13585;50.864;4.406;2023-03-29T10:16:37;16.20;68.60
25732;DHT22;13585;50.864;4.406;2023-03-29T10:21:52;16.20;68.90
25732;DHT22;13585;50.864;4.406;2023-03-29T10:24:22;16.20;68.90
25732;DHT22;13585;50.864;4.406;2023-03-29T10:26:53;16.20;69.10
25732;DHT22;13585;50.864;4.406;2023-03-29T10:29:21;16.20;69.20
25732;DHT22;13585;50.864;4.406;2023-03-29T10:31:48;16.20;69.30
25732;DHT22;13585;50.864;4.406;2023-03-29T10:34:15;16.20;69.30
25732;DHT22;13585;50.864;4.406;2023-03-29T10:36:51;16.20;69.50
25732;DHT22;13585;50.864;4.406;2023-03-29T10:39:18;16.30;69.60
25732;DHT22;13585;50.864;4.406;2023-03-29T10:41:48;16.30;69.80
25732;DHT22;13585;50.864;4.406;2023-03-29T10:44:32;16.30;70.10
25732;DHT22;13585;50.864;4.406;2023-03-29T10:47:18;16.30;70.40
25732;DHT22;13585;50.864;4.406;2023-03-29T10:49:49;16.30;70.70
25732;DHT22;13585;50.864;4.406;2023-03-29T10:52:16;16.30;70.80
25732;DHT22;13585;50.864;4.406;2023-03-29T10:54:43;16.30;70.90
25732;DHT22;13585;50.864;4.406;2023-03-29T10:57:12;16.30;71.20
25732;DHT22;13585;50.864;4.406;2023-03-29T10:59:52;16.30;71.40
25732;DHT22;13585;50.864;4.406;2023-03-29T11:38:26;16.30;72.90
25732;DHT22;13585;50.864;4.406;2023-03-29T11:41:00;16.40;73.00
25732;DHT22;13585;50.864;4.406;2023-03-29T11:43:49;16.40;73.00
25732;DHT22;13585;50.864;4.406;2023-03-29T11:46:18;16.40;73.10
25732;DHT22;13585;50.864;4.406;2023-03-29T11:48:48;16.40;73.10
25732;DHT22;13585;50.864;4.406;2023-03-29T11:51:25;16.30;73.10
25732;DHT22;13585;50.864;4.406;2023-03-29T11:53:59;16.40;73.30
25732;DHT22;13585;50.864;4.406;2023-03-29T11:56:40;16.40;73.30
25732;DHT22;13585;50.864;4.406;2023-03-29T11:59:20;16.40;73.30
25732;DHT22;13585;50.864;4.406;2023-03-29T12:01:54;16.40;73.40
25732;DHT22;13585;50.864;4.406;2023-03-29T12:04:27;16.40;73.40
25732;DHT22;13585;50.864;4.406;2023-03-29T12:07:02;16.40;73.40
25732;DHT22;13585;50.864;4.406;2023-03-29T12:09:41;16.40;73.40
25732;DHT22;13585;50.864;4.406;2023-03-29T12:12:22;16.40;73.50
25732;DHT22;13585;50.864;4.406;2023-03-29T12:17:27;16.40;73.50
25732;DHT22;13585;50.864;4.406;2023-03-29T12:20:10;16.40;73.50
25732;DHT22;13585;50.864;4.406;2023-03-29T12:22:38;16.50;73.40
25732;DHT22;13585;50.864;4.406;2023-03-29T12:25:06;16.50;73.30
25732;DHT22;13585;50.864;4.406;2023-03-29T12:27:45;16.40;73.50
25732;DHT22;13585;50.864;4.406;2023-03-29T12:33:06;16.40;73.60
25732;DHT22;13585;50.864;4.406;2023-03-29T12:35:47;16.40;73.70
25732;DHT22;13585;50.864;4.406;2023-03-29T12:38:21;16.40;73.70
25732;DHT22;13585;50.864;4.406;2023-03-29T12:40:54;16.40;73.70
25732;DHT22;13585;50.864;4.406;2023-03-29T12:43:31;16.40;73.70
25732;DHT22;13585;50.864;4.406;2023-03-29T12:46:13;16.40;73.80
25732;DHT22;13585;50.864;4.406;2023-03-29T12:48:43;16.40;73.80
25732;DHT22;13585;50.864;4.406;2023-03-29T12:51:18;16.40;73.80
25732;DHT22;13585;50.864;4.406;2023-03-29T12:53:53;16.40;73.90
25732;DHT22;13585;50.864;4.406;2023-03-29T12:56:22;16.40;73.90
25732;DHT22;13585;50.864;4.406;2023-03-29T13:01:37;16.40;73.90
25732;DHT22;13585;50.864;4.406;2023-03-29T13:04:18;16.40;74.00
25732;DHT22;13585;50.864;4.406;2023-03-29T13:09:27;16.40;73.90
25732;DHT22;13585;50.864;4.406;2023-03-29T13:11:56;16.40;74.00
25732;DHT22;13585;50.864;4.406;2023-03-29T13:14:31;16.40;74.00
25732;DHT22;13585;50.864;4.406;2023-03-29T13:17:07;16.40;74.00
25732;DHT22;13585;50.864;4.406;2023-03-29T13:19:45;16.40;74.10
25732;DHT22;13585;50.864;4.406;2023-03-29T13:28:21;16.50;74.10
25732;DHT22;13585;50.864;4.406;2023-03-29T13:30:57;16.50;74.10
25732;DHT22;13585;50.864;4.406;2023-03-29T13:36:13;16.50;74.30
25732;DHT22;13585;50.864;4.406;2023-03-29T13:38:47;16.50;74.20
25732;DHT22;13585;50.864;4.406;2023-03-29T13:44:24;16.50;74.30
25732;DHT22;13585;50.864;4.406;2023-03-29T13:47:10;16.50;74.30
25732;DHT22;13585;50.864;4.406;2023-03-29T13:49:39;16.50;74.30
25732;DHT22;13585;50.864;4.406;2023-03-29T13:52:18;16.50;74.30
25732;DHT22;13585;50.864;4.406;2023-03-29T13:55:25;16.50;74.30
25732;DHT22;13585;50.864;4.406;2023-03-29T13:57:58;16.50;74.40
25732;DHT22;13585;50.864;4.406;2023-03-29T14:00:40;16.50;74.30
25732;DHT22;13585;50.864;4.406;2023-03-29T14:03:13;16.50;74.40
25732;DHT22;13585;50.864;4.406;2023-03-29T14:05:42;16.50;74.40
25732;DHT22;13585;50.864;4.406;2023-03-29T14:08:17;16.50;74.40
25732;DHT22;13585;50.864;4.406;2023-03-29T14:10:45;16.50;74.50
25732;DHT22;13585;50.864;4.406;2023-03-29T14:13:16;16.40;74.40
25732;DHT22;13585;50.864;4.406;2023-03-29T14:15:45;16.50;74.50
25732;DHT22;13585;50.864;4.406;2023-03-29T14:18:15;16.50;74.50
25732;DHT22;13585;50.864;4.406;2023-03-29T14:20:49;16.50;74.50
25732;DHT22;13585;50.864;4.406;2023-03-29T14:23:28;16.50;74.50
25732;DHT22;13585;50.864;4.406;2023-03-29T14:26:23;16.50;74.50
25732;DHT22;13585;50.864;4.406;2023-03-29T14:28:54;16.50;74.70
25732;DHT22;13585;50.864;4.406;2023-03-29T14:31:36;16.60;74.60
25732;DHT22;13585;50.864;4.406;2023-03-29T14:34:05;16.60;74.50
25732;DHT22;13585;50.864;4.406;2023-03-29T14:36:32;16.60;74.50
25732;DHT22;13585;50.864;4.406;2023-03-29T14:41:32;16.60;74.70
25732;DHT22;13585;50.864;4.406;2023-03-29T14:43:59;16.50;74.60
25732;DHT22;13585;50.864;4.406;2023-03-29T14:46:25;16.60;74.70
25732;DHT22;13585;50.864;4.406;2023-03-29T14:48:52;16.60;74.70
25732;DHT22;13585;50.864;4.406;2023-03-29T14:51:18;16.60;74.70
25732;DHT22;13585;50.864;4.406;2023-03-29T14:53:46;16.50;74.60
25732;DHT22;13585;50.864;4.406;2023-03-29T14:56:14;16.60;74.70
25732;DHT22;13585;50.864;4.406;2023-03-29T14:58:45;16.60;74.70
25732;DHT22;13585;50.864;4.406;2023-03-29T15:01:18;16.60;74.70
25732;DHT22;13585;50.864;4.406;2023-03-29T15:04:03;16.50;74.70
25732;DHT22;13585;50.864;4.406;2023-03-29T15:06:30;16.50;74.70
25732;DHT22;13585;50.864;4.406;2023-03-29T15:09:00;16.60;74.70
25732;DHT22;13585;50.864;4.406;2023-03-29T15:11:29;16.60;74.70
25732;DHT22;13585;50.864;4.406;2023-03-29T15:14:15;16.60;74.70
25732;DHT22;13585;50.864;4.406;2023-03-29T15:16:44;16.50;74.80
25732;DHT22;13585;50.864;4.406;2023-03-29T15:19:19;16.60;74.70
25732;DHT22;13585;50.864;4.406;2023-03-29T15:21:47;16.60;74.80
25732;DHT22;13585;50.864;4.406;2023-03-29T15:24:32;16.60;74.70
25732;DHT22;13585;50.864;4.406;2023-03-29T15:27:25;16.60;74.80
25732;DHT22;13585;50.864;4.406;2023-03-29T15:29:59;16.60;74.90
25732;DHT22;13585;50.864;4.406;2023-03-29T15:32:33;16.60;74.70
25732;DHT22;13585;50.864;4.406;2023-03-29T15:35:21;16.60;74.70
25732;DHT22;13585;50.864;4.406;2023-03-29T15:37:49;16.60;74.80
25732;DHT22;13585;50.864;4.406;2023-03-29T15:40:17;16.60;74.70
25732;DHT22;13585;50.864;4.406;2023-03-29T15:42:44;16.60;74.70
25732;DHT22;13585;50.864;4.406;2023-03-29T15:45:17;16.60;74.70
25732;DHT22;13585;50.864;4.406;2023-03-29T15:47:43;16.60;75.50
25732;DHT22;13585;50.864;4.406;2023-03-29T15:50:09;16.60;74.70
25732;DHT22;13585;50.864;4.406;2023-03-29T15:52:36;16.60;74.70
25732;DHT22;13585;50.864;4.406;2023-03-29T15:55:03;16.60;74.70
25732;DHT22;13585;50.864;4.406;2023-03-29T15:57:29;16.60;74.70
25732;DHT22;13585;50.864;4.406;2023-03-29T15:59:55;16.60;74.70
25732;DHT22;13585;50.864;4.406;2023-03-29T16:02:23;16.60;74.80
25732;DHT22;13585;50.864;4.406;2023-03-29T16:04:49;16.60;74.70
25732;DHT22;13585;50.864;4.406;2023-03-29T16:07:17;16.60;74.70
25732;DHT22;13585;50.864;4.406;2023-03-29T16:09:43;16.60;74.70
25732;DHT22;13585;50.864;4.406;2023-03-29T16:12:11;16.60;74.70
25732;DHT22;13585;50.864;4.406;2023-03-29T16:14:37;16.60;74.70
25732;DHT22;13585;50.864;4.406;2023-03-29T16:17:03;16.60;74.70
25732;DHT22;13585;50.864;4.406;2023-03-29T16:19:32;16.60;74.70
25732;DHT22;13585;50.864;4.406;2023-03-29T16:22:00;16.60;74.70
25732;DHT22;13585;50.864;4.406;2023-03-29T16:24:29;16.60;74.70
25732;DHT22;13585;50.864;4.406;2023-03-29T16:26:59;16.60;74.70
25732;DHT22;13585;50.864;4.406;2023-03-29T16:29:25;16.60;74.70
25732;DHT22;13585;50.864;4.406;2023-03-29T16:31:52;16.70;74.70
25732;DHT22;13585;50.864;4.406;2023-03-29T16:34:39;16.70;74.80
25732;DHT22;13585;50.864;4.406;2023-03-29T16:37:06;16.60;74.90
25732;DHT22;13585;50.864;4.406;2023-03-29T16:39:32;16.70;74.70
25732;DHT22;13585;50.864;4.406;2023-03-29T16:41:57;16.70;74.80
25732;DHT22;13585;50.864;4.406;2023-03-29T16:44:23;16.70;74.80
25732;DHT22;13585;50.864;4.406;2023-03-29T16:46:51;16.70;74.80
25732;DHT22;13585;50.864;4.406;2023-03-29T16:49:18;16.70;74.80
25732;DHT22;13585;50.864;4.406;2023-03-29T16:51:45;16.70;74.80
25732;DHT22;13585;50.864;4.406;2023-03-29T16:54:19;16.80;74.90
25732;DHT22;13585;50.864;4.406;2023-03-29T16:56:45;16.70;74.80
25732;DHT22;13585;50.864;4.406;2023-03-29T16:59:11;16.70;74.80
25732;DHT22;13585;50.864;4.406;2023-03-29T17:01:37;16.70;74.90
25732;DHT22;13585;50.864;4.406;2023-03-29T17:04:31;16.70;74.80
25732;DHT22;13585;50.864;4.406;2023-03-29T17:06:57;16.70;75.00
25732;DHT22;13585;50.864;4.406;2023-03-29T17:09:29;16.70;74.80
25732;DHT22;13585;50.864;4.406;2023-03-29T17:11:55;16.60;74.70
25732;DHT22;13585;50.864;4.406;2023-03-29T17:14:20;16.70;74.70
25732;DHT22;13585;50.864;4.406;2023-03-29T17:16:46;16.70;74.60
25732;DHT22;13585;50.864;4.406;2023-03-29T17:19:12;16.70;74.70
25732;DHT22;13585;50.864;4.406;2023-03-29T17:21:37;16.70;74.80
25732;DHT22;13585;50.864;4.406;2023-03-29T17:24:03;16.70;74.80
25732;DHT22;13585;50.864;4.406;2023-03-29T17:26:29;16.70;74.90
25732;DHT22;13585;50.864;4.406;2023-03-29T17:28:54;16.70;74.90
25732;DHT22;13585;50.864;4.406;2023-03-29T17:31:20;16.70;74.90
25732;DHT22;13585;50.864;4.406;2023-03-29T17:33:46;16.70;74.80
25732;DHT22;13585;50.864;4.406;2023-03-29T17:36:11;16.70;74.90
25732;DHT22;13585;50.864;4.406;2023-03-29T17:38:37;16.70;74.80
25732;DHT22;13585;50.864;4.406;2023-03-29T17:41:03;16.70;74.80